createdAt,value
2022-12-04T00:01:10.879Z,2.27
2022-12-04T00:03:37.742Z,2.27
2022-12-04T00:06:12.702Z,2.25
2022-12-04T00:08:40.013Z,2.32
2022-12-04T00:11:08.545Z,2.24
2022-12-04T00:13:35.426Z,2.28
2022-12-04T00:16:07.605Z,2.25
2022-12-04T00:18:34.430Z,2.22
2022-12-04T00:21:04.361Z,2.25
2022-12-04T00:23:30.876Z,2.18
2022-12-04T00:26:04.752Z,2.25
2022-12-04T00:28:31.245Z,2.27
2022-12-04T00:30:57.544Z,2.28
2022-12-04T00:33:23.970Z,2.20
2022-12-04T00:36:01.098Z,2.18
2022-12-04T00:38:27.614Z,2.11
2022-12-04T00:40:54.739Z,2.09
2022-12-04T00:43:22.009Z,2.07
2022-12-04T00:45:48.864Z,2.17
2022-12-04T00:48:15.250Z,2.18
2022-12-04T00:50:41.730Z,2.16
2022-12-04T00:53:08.096Z,2.12
2022-12-04T00:55:37.986Z,2.07
2022-12-04T00:58:04.687Z,2.10
2022-12-04T01:00:31.488Z,2.09
2022-12-04T01:02:57.851Z,2.09
2022-12-04T01:05:24.196Z,2.12
2022-12-04T01:07:50.592Z,2.10
2022-12-04T01:10:16.984Z,2.03
2022-12-04T01:12:43.337Z,2.07
2022-12-04T01:15:10.078Z,2.01
2022-12-04T01:17:36.589Z,2.03
2022-12-04T01:20:04.122Z,2.15
2022-12-04T01:22:30.811Z,2.13
2022-12-04T01:24:57.418Z,2.11
2022-12-04T01:27:24.322Z,2.09
2022-12-04T01:29:50.637Z,2.06
2022-12-04T01:32:17.021Z,2.03
2022-12-04T01:34:43.405Z,2.00
2022-12-04T01:37:09.825Z,2.06
2022-12-04T01:39:37.249Z,2.04
2022-12-04T01:42:04.277Z,2.02
2022-12-04T01:44:31.732Z,2.10
2022-12-04T01:47:01.367Z,2.09
2022-12-04T01:49:37.341Z,2.10
2022-12-04T01:52:14.198Z,2.08
2022-12-04T01:54:45.329Z,2.05
2022-12-04T01:57:23.631Z,2.08
2022-12-04T01:59:57.536Z,2.11
2022-12-04T02:02:29.704Z,2.00
2022-12-04T02:04:56.349Z,2.06
2022-12-04T02:07:22.771Z,2.11
2022-12-04T02:09:54.163Z,2.10
2022-12-04T02:12:28.389Z,2.15
2022-12-04T02:15:17.646Z,2.09
2022-12-04T02:18:16.500Z,2.15
2022-12-04T02:20:58.392Z,2.13
2022-12-04T02:23:49.013Z,2.12
2022-12-04T02:26:27.480Z,2.17
2022-12-04T02:29:07.669Z,2.14
2022-12-04T02:31:57.021Z,2.13
2022-12-04T02:34:29.525Z,2.08
2022-12-04T02:37:01.817Z,2.10
2022-12-04T02:39:36.281Z,2.10
2022-12-04T02:42:11.966Z,2.09
2022-12-04T02:44:47.278Z,2.20
2022-12-04T02:47:19.060Z,2.18
2022-12-04T02:49:50.459Z,2.17
2022-12-04T02:52:22.745Z,2.15
2022-12-04T02:54:54.425Z,2.15
2022-12-04T02:57:27.979Z,2.15
2022-12-04T02:59:57.495Z,2.11
2022-12-04T03:02:59.325Z,2.06
2022-12-04T03:05:54.085Z,2.14
2022-12-04T03:08:26.096Z,2.15
2022-12-04T03:10:57.858Z,2.11
2022-12-04T03:13:30.673Z,2.12
2022-12-04T03:16:03.493Z,2.06
2022-12-04T03:18:36.213Z,2.12
2022-12-04T03:21:14.224Z,2.13
2022-12-04T03:23:53.495Z,2.10
2022-12-04T03:26:28.349Z,2.16
2022-12-04T03:29:05.127Z,2.06
2022-12-04T03:31:42.565Z,2.11
2022-12-04T03:34:12.817Z,2.08
2022-12-04T03:36:53.597Z,2.12
2022-12-04T03:39:29.851Z,2.11
2022-12-04T03:42:08.210Z,2.10
2022-12-04T03:44:52.897Z,2.06
2022-12-04T03:47:29.216Z,2.02
2022-12-04T03:50:04.882Z,2.04
2022-12-04T03:52:46.730Z,2.00
2022-12-04T03:55:24.915Z,2.10
2022-12-04T03:57:56.585Z,2.08
2022-12-04T04:00:23.178Z,2.07
2022-12-04T04:02:59.691Z,1.99
2022-12-04T04:05:29.159Z,2.03
2022-12-04T04:08:21.443Z,2.09
2022-12-04T04:10:50.221Z,2.05
2022-12-04T04:13:38.671Z,2.01
2022-12-04T04:16:27.028Z,2.07
2022-12-04T04:19:13.111Z,2.05
2022-12-04T04:22:02.316Z,1.97
2022-12-04T04:24:39.869Z,2.03
2022-12-04T04:27:06.459Z,2.06
2022-12-04T04:29:33.157Z,2.08
2022-12-04T04:32:10.274Z,1.96
2022-12-04T04:35:00.350Z,1.98
2022-12-04T04:37:54.750Z,2.04
2022-12-04T04:40:52.527Z,2.04
2022-12-04T04:43:28.114Z,2.02
2022-12-04T04:46:00.207Z,1.96
2022-12-04T04:48:36.576Z,1.99
2022-12-04T04:51:04.764Z,1.98
2022-12-04T04:53:36.641Z,2.01
2022-12-04T04:56:05.713Z,2.07
2022-12-04T04:58:32.097Z,2.02
2022-12-04T05:01:08.244Z,2.00
2022-12-04T05:03:35.205Z,2.12
2022-12-04T05:06:02.038Z,2.12
2022-12-04T05:08:28.422Z,2.17
2022-12-04T05:10:55.294Z,1.98
2022-12-04T05:13:21.729Z,2.04
2022-12-04T05:16:08.803Z,2.05
2022-12-04T05:18:35.761Z,2.09
2022-12-04T05:21:09.737Z,2.10
2022-12-04T05:23:36.098Z,2.06
2022-12-04T05:26:04.778Z,2.08
2022-12-04T05:28:31.254Z,2.02
2022-12-04T05:30:59.211Z,2.02
2022-12-04T05:33:25.704Z,2.01
2022-12-04T05:35:59.834Z,1.99
2022-12-04T05:38:26.359Z,2.00
2022-12-04T05:40:52.735Z,1.91
2022-12-04T05:43:19.434Z,2.01
2022-12-04T05:45:45.802Z,1.96
2022-12-04T05:48:12.101Z,1.94
2022-12-04T05:50:39.030Z,2.01
2022-12-04T05:53:05.324Z,1.93
2022-12-04T05:55:32.139Z,1.95
2022-12-04T05:57:58.521Z,1.99
2022-12-04T06:00:24.897Z,1.98
2022-12-04T06:02:51.244Z,2.04
2022-12-04T06:05:17.739Z,2.04
2022-12-04T06:07:44.169Z,2.03
2022-12-04T06:10:10.642Z,1.95
2022-12-04T06:12:36.993Z,1.97
2022-12-04T06:15:03.824Z,1.97
2022-12-04T06:17:30.773Z,1.94
2022-12-04T06:19:57.431Z,2.00
2022-12-04T06:22:24.066Z,1.93
2022-12-04T06:24:50.391Z,1.98
2022-12-04T06:27:32.006Z,1.96
2022-12-04T06:29:58.989Z,1.95
2022-12-04T06:32:25.495Z,2.02
2022-12-04T06:34:53.359Z,2.02
2022-12-04T06:37:21.529Z,2.00
2022-12-04T06:39:47.930Z,2.04
2022-12-04T06:42:14.267Z,2.12
2022-12-04T06:44:40.641Z,2.10
2022-12-04T06:47:08.159Z,2.12
2022-12-04T06:49:34.575Z,2.05
2022-12-04T06:52:00.892Z,2.13
2022-12-04T06:54:27.259Z,2.04
2022-12-04T06:56:53.585Z,1.94
2022-12-04T06:59:19.890Z,2.04
2022-12-04T07:01:46.177Z,2.03
2022-12-04T07:04:12.485Z,2.06
2022-12-04T07:06:39.903Z,2.14
2022-12-04T07:09:11.695Z,2.12
2022-12-04T07:11:39.956Z,2.08
2022-12-04T07:14:06.634Z,2.08
2022-12-04T07:16:39.902Z,2.12
2022-12-04T07:19:07.691Z,2.12
2022-12-04T07:21:34.608Z,2.19
2022-12-04T07:24:01.516Z,2.16
2022-12-04T07:26:29.808Z,2.18
2022-12-04T07:28:57.313Z,2.21
2022-12-04T07:31:25.343Z,2.20
2022-12-04T07:33:54.009Z,2.21
2022-12-04T07:36:22.111Z,2.24
2022-12-04T07:38:49.582Z,2.22
2022-12-04T07:41:17.056Z,2.22
2022-12-04T07:43:43.442Z,2.33
2022-12-04T07:46:18.627Z,2.31
2022-12-04T07:48:45.057Z,2.29
2022-12-04T07:51:20.208Z,2.28
2022-12-04T07:53:47.182Z,2.35
2022-12-04T07:56:14.469Z,2.45
2022-12-04T07:58:41.408Z,2.41
2022-12-04T08:01:13.360Z,2.42
2022-12-04T08:03:46.759Z,2.47
2022-12-04T08:06:14.490Z,2.52
2022-12-04T08:08:40.772Z,2.48
2022-12-04T08:11:09.613Z,2.64
2022-12-04T08:13:36.050Z,2.59
2022-12-04T08:16:05.174Z,2.61
2022-12-04T08:18:32.042Z,2.57
2022-12-04T08:21:12.964Z,2.61
2022-12-04T08:23:41.238Z,2.64
2022-12-04T08:26:08.697Z,2.74
2022-12-04T08:28:36.298Z,2.76
2022-12-04T08:31:04.964Z,2.82
2022-12-04T08:33:32.718Z,2.83
2022-12-04T08:35:59.361Z,2.95
2022-12-04T08:38:25.672Z,2.90
2022-12-04T08:40:52.011Z,2.87
2022-12-04T08:43:18.390Z,2.92
2022-12-04T08:45:44.760Z,2.86
2022-12-04T08:48:11.108Z,2.85
2022-12-04T08:50:37.914Z,2.89
2022-12-04T08:53:04.284Z,2.91
2022-12-04T08:55:30.586Z,2.90
2022-12-04T08:57:56.912Z,2.97
2022-12-04T09:00:25.793Z,3.02
2022-12-04T09:02:52.097Z,2.99
2022-12-04T09:05:18.461Z,3.02
2022-12-04T09:07:44.897Z,3.04
2022-12-04T09:10:12.177Z,3.00
2022-12-04T09:12:38.766Z,3.05
2022-12-04T09:15:05.730Z,3.05
2022-12-04T09:17:32.127Z,3.03
2022-12-04T09:20:01.229Z,3.01
2022-12-04T09:22:40.384Z,3.06
2022-12-04T09:25:14.382Z,3.11
2022-12-04T09:27:44.815Z,3.20
2022-12-04T09:30:12.818Z,3.23
2022-12-04T09:32:39.541Z,3.29
2022-12-04T09:35:06.894Z,3.24
2022-12-04T09:37:33.415Z,3.31
2022-12-04T09:39:59.778Z,3.26
2022-12-04T09:42:48.963Z,3.30
2022-12-04T09:45:22.287Z,3.21
2022-12-04T09:47:52.116Z,3.32
2022-12-04T09:50:20.502Z,3.40
2022-12-04T09:52:58.142Z,3.44
2022-12-04T09:55:39.874Z,3.50
2022-12-04T09:58:12.271Z,3.46
2022-12-04T10:00:42.825Z,3.47
2022-12-04T10:03:16.211Z,3.43
2022-12-04T10:05:49.585Z,3.35
2022-12-04T10:08:40.309Z,3.45
2022-12-04T10:11:32.623Z,3.35
2022-12-04T10:14:08.663Z,3.38
2022-12-04T10:16:53.194Z,3.47
2022-12-04T10:19:37.348Z,3.48
2022-12-04T10:22:18.877Z,3.54
2022-12-04T10:24:53.933Z,3.54
2022-12-04T10:27:33.746Z,3.56
2022-12-04T10:30:32.433Z,3.67
2022-12-04T10:33:27.934Z,3.53
2022-12-04T10:35:54.968Z,3.61
2022-12-04T10:38:52.390Z,3.63
2022-12-04T10:41:50.839Z,3.68
2022-12-04T10:44:20.756Z,3.63
2022-12-04T10:46:47.490Z,3.56
2022-12-04T10:49:19.461Z,3.67
2022-12-04T10:51:46.766Z,3.67
2022-12-04T10:54:19.643Z,3.74
2022-12-04T10:56:57.719Z,3.79
2022-12-04T10:59:24.317Z,3.84
2022-12-04T11:01:52.570Z,3.84
2022-12-04T11:04:30.720Z,3.86
2022-12-04T11:07:03.685Z,3.95
2022-12-04T11:09:31.063Z,3.94
2022-12-04T11:12:15.435Z,3.99
2022-12-04T11:14:46.673Z,3.96
2022-12-04T11:17:18.432Z,3.91
2022-12-04T11:19:46.961Z,3.97
2022-12-04T11:22:19.250Z,4.04
2022-12-04T11:24:55.886Z,4.13
2022-12-04T11:27:28.237Z,4.13
2022-12-04T11:29:56.107Z,4.07
2022-12-04T11:32:25.260Z,4.03
2022-12-04T11:34:55.348Z,4.04
2022-12-04T11:37:26.053Z,4.08
2022-12-04T11:39:53.935Z,4.12
2022-12-04T11:42:29.223Z,4.16
2022-12-04T11:44:57.103Z,4.24
2022-12-04T11:47:26.102Z,4.27
2022-12-04T11:50:13.058Z,4.26
2022-12-04T11:53:03.004Z,4.27
2022-12-04T11:56:01.685Z,4.29
2022-12-04T11:58:49.697Z,4.29
2022-12-04T12:01:38.603Z,4.36
2022-12-04T12:04:26.418Z,4.52
2022-12-04T12:07:04.735Z,4.45
2022-12-04T12:09:49.416Z,4.43
2022-12-04T12:12:31.111Z,4.39
2022-12-04T12:15:26.970Z,4.39
2022-12-04T12:18:22.444Z,4.31
2022-12-04T12:21:09.421Z,4.29
2022-12-04T12:24:07.322Z,4.36
2022-12-04T12:26:54.690Z,4.38
2022-12-04T12:29:29.959Z,4.42
2022-12-04T12:32:23.567Z,4.22
2022-12-04T12:34:50.990Z,4.32
2022-12-04T12:37:30.823Z,4.24
2022-12-04T12:40:04.376Z,4.21
2022-12-04T12:42:40.555Z,4.23
2022-12-04T12:45:22.314Z,4.25
2022-12-04T12:47:54.039Z,4.35
2022-12-04T12:50:24.407Z,4.26
2022-12-04T12:53:03.345Z,4.35
2022-12-04T12:56:12.843Z,4.33
2022-12-04T12:58:55.676Z,4.26
2022-12-04T13:01:42.438Z,4.33
2022-12-04T13:04:14.900Z,4.30
2022-12-04T13:06:44.045Z,4.26
2022-12-04T13:09:26.083Z,4.24
2022-12-04T13:11:58.407Z,4.18
2022-12-04T13:14:24.889Z,4.15
2022-12-04T13:17:00.628Z,4.14
2022-12-04T13:19:34.743Z,4.10
2022-12-04T13:22:22.800Z,4.04
2022-12-04T13:24:58.112Z,4.04
2022-12-04T13:27:39.766Z,3.98
2022-12-04T13:30:50.916Z,4.08
2022-12-04T13:33:44.548Z,4.06
2022-12-04T13:36:23.076Z,4.09
2022-12-04T13:39:08.205Z,4.07
2022-12-04T13:41:38.043Z,3.97
2022-12-04T13:44:14.529Z,3.89
2022-12-04T13:46:54.517Z,3.88
2022-12-04T13:49:20.853Z,3.86
2022-12-04T13:51:48.696Z,3.77
2022-12-04T13:54:14.969Z,3.83
2022-12-04T13:56:43.746Z,3.88
2022-12-04T13:59:28.457Z,3.86
2022-12-04T14:02:00.264Z,3.73
2022-12-04T14:04:45.703Z,3.78
2022-12-04T14:07:30.478Z,3.77
2022-12-04T14:09:59.308Z,3.79
2022-12-04T14:12:30.164Z,3.73
2022-12-04T14:14:59.994Z,3.80
2022-12-04T14:17:30.582Z,3.75
2022-12-04T14:20:07.860Z,3.81
2022-12-04T14:22:34.639Z,3.82
2022-12-04T14:25:13.298Z,3.76
2022-12-04T14:27:42.697Z,3.77
2022-12-04T14:30:37.605Z,3.71
2022-12-04T14:33:22.548Z,3.69
2022-12-04T14:36:24.907Z,3.69
2022-12-04T14:39:26.022Z,3.71
2022-12-04T14:41:55.952Z,3.76
2022-12-04T14:44:29.799Z,3.75
2022-12-04T14:47:02.675Z,3.75
2022-12-04T14:49:47.677Z,3.58
2022-12-04T14:52:24.236Z,3.64
2022-12-04T14:55:07.337Z,3.61
2022-12-04T14:57:57.729Z,3.55
2022-12-04T15:00:24.726Z,3.51
2022-12-04T15:02:55.908Z,3.55
2022-12-04T15:05:27.120Z,3.55
2022-12-04T15:07:58.533Z,3.50
2022-12-04T15:10:49.269Z,3.49
2022-12-04T15:13:27.454Z,3.47
2022-12-04T15:15:54.033Z,3.59
2022-12-04T15:18:20.540Z,3.57
2022-12-04T15:20:49.891Z,3.47
2022-12-04T15:23:21.362Z,3.35
2022-12-04T15:25:53.131Z,3.31
2022-12-04T15:28:28.946Z,3.34
2022-12-04T15:30:57.891Z,3.30
2022-12-04T15:33:30.628Z,3.27
2022-12-04T15:36:02.375Z,3.26
2022-12-04T15:38:29.149Z,3.25
2022-12-04T15:40:58.226Z,3.20
2022-12-04T15:43:27.637Z,3.25
2022-12-04T15:45:54.499Z,3.22
2022-12-04T15:48:28.456Z,3.14
2022-12-04T15:51:00.657Z,3.16
2022-12-04T15:53:30.993Z,3.20
2022-12-04T15:56:02.326Z,3.11
2022-12-04T15:58:31.589Z,3.13
2022-12-04T16:01:09.700Z,3.06
2022-12-04T16:03:42.403Z,2.98
2022-12-04T16:06:17.565Z,2.98
2022-12-04T16:08:46.396Z,2.92
2022-12-04T16:11:18.774Z,2.90
2022-12-04T16:13:45.056Z,2.88
2022-12-04T16:16:16.727Z,2.87
2022-12-04T16:18:43.405Z,2.94
2022-12-04T16:21:17.016Z,2.82
2022-12-04T16:23:44.014Z,2.78
2022-12-04T16:26:12.687Z,2.83
2022-12-04T16:28:39.041Z,2.93
2022-12-04T16:31:05.583Z,2.95
2022-12-04T16:33:31.984Z,2.88
2022-12-04T16:35:58.283Z,2.93
2022-12-04T16:38:24.991Z,2.95
2022-12-04T16:40:51.322Z,3.02
2022-12-04T16:43:19.759Z,3.03
2022-12-04T16:45:50.797Z,3.02
2022-12-04T16:48:17.147Z,3.09
2022-12-04T16:50:44.674Z,2.98
2022-12-04T16:53:19.685Z,3.08
2022-12-04T16:55:51.217Z,3.06
2022-12-04T16:58:19.700Z,3.09
2022-12-04T17:00:52.902Z,3.13
2022-12-04T17:03:26.683Z,3.12
2022-12-04T17:05:53.145Z,3.19
2022-12-04T17:08:20.068Z,3.19
2022-12-04T17:10:47.320Z,3.26
2022-12-04T17:13:13.853Z,3.21
2022-12-04T17:15:40.279Z,3.22
2022-12-04T17:18:11.980Z,3.31
2022-12-04T17:20:42.910Z,3.30
2022-12-04T17:23:10.667Z,3.39
2022-12-04T17:25:37.258Z,3.29
2022-12-04T17:28:03.720Z,3.31
2022-12-04T17:30:35.772Z,3.41
2022-12-04T17:33:02.797Z,3.36
2022-12-04T17:35:29.400Z,3.31
2022-12-04T17:37:58.360Z,3.26
2022-12-04T17:40:28.543Z,3.25
2022-12-04T17:42:54.817Z,3.26
2022-12-04T17:45:21.085Z,3.18
2022-12-04T17:47:47.364Z,3.25
2022-12-04T17:50:13.726Z,3.33
2022-12-04T17:52:40.040Z,3.40
2022-12-04T17:55:08.901Z,3.26
2022-12-04T17:57:35.417Z,3.14
2022-12-04T18:00:01.779Z,3.02
2022-12-04T18:02:28.151Z,2.99
2022-12-04T18:04:55.327Z,2.99
2022-12-04T18:07:21.950Z,3.05
2022-12-04T18:09:48.254Z,3.09
2022-12-04T18:12:14.581Z,3.05
2022-12-04T18:14:41.013Z,2.96
2022-12-04T18:17:07.323Z,3.03
2022-12-04T18:19:33.719Z,2.98
2022-12-04T18:22:00.096Z,2.99
2022-12-04T18:24:26.954Z,2.92
2022-12-04T18:26:53.689Z,3.00
2022-12-04T18:29:22.911Z,2.95
2022-12-04T18:31:50.904Z,2.97
2022-12-04T18:34:17.667Z,2.96
2022-12-04T18:36:45.391Z,2.90
2022-12-04T18:39:14.931Z,2.78
2022-12-04T18:41:41.679Z,2.68
2022-12-04T18:44:08.036Z,2.63
2022-12-04T18:46:34.432Z,2.62
2022-12-04T18:49:03.608Z,2.61
2022-12-04T18:51:39.463Z,2.62
2022-12-04T18:54:12.570Z,2.76
2022-12-04T18:56:39.212Z,2.74
2022-12-04T18:59:17.384Z,2.70
2022-12-04T19:01:44.101Z,2.79
2022-12-04T19:04:12.725Z,2.86
2022-12-04T19:06:50.589Z,2.70
2022-12-04T19:09:19.920Z,2.77
2022-12-04T19:11:46.819Z,2.81
2022-12-04T19:14:22.984Z,2.93
2022-12-04T19:16:50.518Z,2.89
2022-12-04T19:19:17.651Z,2.87
2022-12-04T19:21:44.377Z,2.82
2022-12-04T19:24:11.478Z,2.92
2022-12-04T19:26:38.169Z,2.88
2022-12-04T19:29:06.125Z,2.85
2022-12-04T19:31:34.989Z,2.90
2022-12-04T19:34:01.520Z,3.06
2022-12-04T19:36:29.898Z,3.08
2022-12-04T19:38:59.756Z,3.02
2022-12-04T19:41:31.286Z,3.03
2022-12-04T19:43:59.940Z,3.02
2022-12-04T19:46:29.927Z,3.01
2022-12-04T19:49:00.201Z,2.99
2022-12-04T19:51:26.610Z,2.99
2022-12-04T19:53:54.764Z,2.99
2022-12-04T19:56:24.370Z,2.88
2022-12-04T19:58:52.229Z,3.00
2022-12-04T20:01:20.608Z,2.85
2022-12-04T20:03:47.089Z,2.83
2022-12-04T20:06:16.188Z,2.76
2022-12-04T20:08:42.880Z,2.70
2022-12-04T20:11:19.359Z,2.67
2022-12-04T20:13:47.529Z,2.68
2022-12-04T20:16:16.875Z,2.70
2022-12-04T20:18:43.602Z,2.67
2022-12-04T20:21:11.848Z,2.71
2022-12-04T20:23:39.782Z,2.73
2022-12-04T20:26:08.333Z,2.74
2022-12-04T20:28:36.289Z,2.78
2022-12-04T20:31:35.464Z,2.75
2022-12-04T20:34:04.125Z,2.64
2022-12-04T20:36:31.618Z,2.72
2022-12-04T20:38:59.166Z,2.91
2022-12-04T20:41:27.746Z,2.82
2022-12-04T20:43:54.600Z,2.75
2022-12-04T20:46:31.507Z,2.72
2022-12-04T20:48:59.032Z,2.75
2022-12-04T20:51:28.492Z,2.75
2022-12-04T20:53:57.983Z,2.68
2022-12-04T20:56:26.368Z,2.78
2022-12-04T20:59:04.545Z,2.75
2022-12-04T21:01:31.010Z,2.73
2022-12-04T21:03:59.164Z,2.72
2022-12-04T21:06:37.043Z,2.86
2022-12-04T21:09:06.405Z,2.93
2022-12-04T21:11:35.972Z,2.91
2022-12-04T21:14:23.490Z,2.87
2022-12-04T21:16:50.423Z,2.93
2022-12-04T21:19:19.541Z,2.91
2022-12-04T21:21:46.365Z,2.88
2022-12-04T21:24:14.813Z,2.79
2022-12-04T21:26:41.342Z,2.78
2022-12-04T21:29:08.273Z,2.81
2022-12-04T21:31:35.998Z,2.78
2022-12-04T21:34:05.081Z,2.76
2022-12-04T21:36:31.428Z,2.83
2022-12-04T21:38:58.146Z,2.72
2022-12-04T21:41:43.778Z,2.72
2022-12-04T21:44:15.882Z,2.75
2022-12-04T21:46:43.623Z,2.80
2022-12-04T21:49:10.672Z,2.86
2022-12-04T21:51:56.780Z,2.83
2022-12-04T21:54:23.553Z,2.70
2022-12-04T21:56:49.942Z,2.63
2022-12-04T21:59:16.338Z,2.68
2022-12-04T22:01:45.494Z,2.63
2022-12-04T22:04:12.141Z,2.67
2022-12-04T22:06:38.492Z,2.55
2022-12-04T22:09:10.475Z,2.57
2022-12-04T22:11:38.087Z,2.54
2022-12-04T22:14:04.597Z,2.48
2022-12-04T22:16:32.849Z,2.49
2022-12-04T22:19:01.002Z,2.45
2022-12-04T22:21:28.493Z,2.42
2022-12-04T22:24:01.785Z,2.40
2022-12-04T22:26:29.732Z,2.33
2022-12-04T22:28:56.627Z,2.27
2022-12-04T22:31:25.812Z,2.29
2022-12-04T22:33:54.333Z,2.34
2022-12-04T22:36:23.107Z,2.16
2022-12-04T22:39:08.701Z,2.26
2022-12-04T22:41:36.498Z,2.27
2022-12-04T22:44:03.137Z,2.26
2022-12-04T22:46:29.558Z,2.26
2022-12-04T22:48:55.967Z,2.25
2022-12-04T22:51:22.509Z,2.22
2022-12-04T22:53:52.424Z,2.28
2022-12-04T22:56:24.524Z,2.31
2022-12-04T22:58:51.985Z,2.31
2022-12-04T23:01:23.108Z,2.26
2022-12-04T23:03:50.430Z,2.23
2022-12-04T23:06:19.092Z,2.19
2022-12-04T23:08:45.921Z,2.16
2022-12-04T23:11:20.606Z,2.22
2022-12-04T23:13:51.976Z,2.21
2022-12-04T23:16:20.485Z,2.19
2022-12-04T23:18:47.310Z,2.23
2022-12-04T23:21:14.489Z,2.19
2022-12-04T23:23:43.270Z,2.15
2022-12-04T23:26:12.944Z,2.23
2022-12-04T23:28:39.401Z,2.25
2022-12-04T23:31:05.999Z,2.38
2022-12-04T23:33:32.904Z,2.28
2022-12-04T23:36:01.356Z,2.28
2022-12-04T23:38:28.904Z,2.28
2022-12-04T23:41:10.360Z,2.16
2022-12-04T23:43:36.782Z,2.12
2022-12-04T23:46:10.363Z,2.16
2022-12-04T23:48:38.074Z,2.12
2022-12-04T23:51:04.518Z,2.11
2022-12-04T23:53:30.813Z,2.09
2022-12-04T23:55:59.426Z,2.15
2022-12-04T23:58:26.106Z,2.20
